sensor_id;sensor_type;location;lat;lon;timestamp;P1;durP1;ratioP1;P2;durP2;ratioP2
72235;SDS011;60146;52.498;13.462;2024-03-08T00:01:05;27.57;;;10.37;;
72235;SDS011;60146;52.498;13.462;2024-03-08T00:03:31;28.37;;;9.30;;
72235;SDS011;60146;52.498;13.462;2024-03-08T00:05:57;26.20;;;10.17;;
72235;SDS011;60146;52.498;13.462;2024-03-08T00:08:23;29.33;;;10.33;;
72235;SDS011;60146;52.498;13.462;2024-03-08T00:10:48;27.53;;;10.40;;
72235;SDS011;60146;52.498;13.462;2024-03-08T00:13:14;30.43;;;10.50;;
72235;SDS011;60146;52.498;13.462;2024-03-08T00:15:39;28.87;;;10.33;;
72235;SDS011;60146;52.498;13.462;2024-03-08T00:18:06;28.93;;;9.97;;
72235;SDS011;60146;52.498;13.462;2024-03-08T00:20:31;32.57;;;10.97;;
72235;SDS011;60146;52.498;13.462;2024-03-08T00:22:57;29.00;;;11.10;;
72235;SDS011;60146;52.498;13.462;2024-03-08T00:25:23;25.20;;;9.47;;
72235;SDS011;60146;52.498;13.462;2024-03-08T00:27:48;27.70;;;10.73;;
72235;SDS011;60146;52.498;13.462;2024-03-08T00:30:14;25.90;;;9.50;;
72235;SDS011;60146;52.498;13.462;2024-03-08T00:32:40;31.97;;;10.77;;
72235;SDS011;60146;52.498;13.462;2024-03-08T00:35:06;30.80;;;11.20;;
72235;SDS011;60146;52.498;13.462;2024-03-08T00:37:34;29.97;;;10.63;;
72235;SDS011;60146;52.498;13.462;2024-03-08T00:40:00;28.23;;;9.90;;
72235;SDS011;60146;52.498;13.462;2024-03-08T00:42:25;26.70;;;9.50;;
72235;SDS011;60146;52.498;13.462;2024-03-08T00:44:50;32.07;;;10.17;;
72235;SDS011;60146;52.498;13.462;2024-03-08T00:47:16;26.00;;;8.83;;
72235;SDS011;60146;52.498;13.462;2024-03-08T00:49:41;30.73;;;10.03;;
72235;SDS011;60146;52.498;13.462;2024-03-08T00:52:07;26.23;;;10.20;;
72235;SDS011;60146;52.498;13.462;2024-03-08T00:54:35;27.43;;;9.37;;
72235;SDS011;60146;52.498;13.462;2024-03-08T00:57:01;26.47;;;9.43;;
72235;SDS011;60146;52.498;13.462;2024-03-08T00:59:28;25.17;;;9.63;;
72235;SDS011;60146;52.498;13.462;2024-03-08T01:01:59;27.90;;;10.03;;
72235;SDS011;60146;52.498;13.462;2024-03-08T01:04:25;27.10;;;10.33;;
72235;SDS011;60146;52.498;13.462;2024-03-08T01:06:53;29.83;;;10.77;;
72235;SDS011;60146;52.498;13.462;2024-03-08T01:09:21;26.17;;;10.13;;
72235;SDS011;60146;52.498;13.462;2024-03-08T01:11:50;24.80;;;9.43;;
72235;SDS011;60146;52.498;13.462;2024-03-08T01:14:15;29.53;;;10.13;;
72235;SDS011;60146;52.498;13.462;2024-03-08T01:16:41;26.03;;;9.73;;
72235;SDS011;60146;52.498;13.462;2024-03-08T01:19:06;32.80;;;11.10;;
72235;SDS011;60146;52.498;13.462;2024-03-08T01:21:32;31.27;;;9.87;;
72235;SDS011;60146;52.498;13.462;2024-03-08T01:23:58;26.27;;;9.00;;
72235;SDS011;60146;52.498;13.462;2024-03-08T01:26:23;26.60;;;10.17;;
72235;SDS011;60146;52.498;13.462;2024-03-08T01:28:49;27.73;;;10.07;;
72235;SDS011;60146;52.498;13.462;2024-03-08T01:31:15;32.33;;;10.67;;
72235;SDS011;60146;52.498;13.462;2024-03-08T01:33:41;30.00;;;10.30;;
72235;SDS011;60146;52.498;13.462;2024-03-08T01:36:06;25.73;;;9.23;;
72235;SDS011;60146;52.498;13.462;2024-03-08T01:38:32;31.97;;;10.63;;
72235;SDS011;60146;52.498;13.462;2024-03-08T01:40:57;27.67;;;11.13;;
72235;SDS011;60146;52.498;13.462;2024-03-08T01:43:26;32.47;;;10.70;;
72235;SDS011;60146;52.498;13.462;2024-03-08T01:45:58;31.83;;;10.97;;
72235;SDS011;60146;52.498;13.462;2024-03-08T01:48:29;30.53;;;10.50;;
72235;SDS011;60146;52.498;13.462;2024-03-08T01:50:56;30.90;;;10.97;;
72235;SDS011;60146;52.498;13.462;2024-03-08T01:53:22;29.60;;;10.97;;
72235;SDS011;60146;52.498;13.462;2024-03-08T01:55:49;30.90;;;10.70;;
72235;SDS011;60146;52.498;13.462;2024-03-08T01:58:17;30.80;;;10.93;;
72235;SDS011;60146;52.498;13.462;2024-03-08T02:00:45;28.37;;;10.50;;
72235;SDS011;60146;52.498;13.462;2024-03-08T02:03:14;34.80;;;11.03;;
72235;SDS011;60146;52.498;13.462;2024-03-08T02:05:40;31.50;;;10.33;;
72235;SDS011;60146;52.498;13.462;2024-03-08T02:08:06;29.30;;;9.90;;
72235;SDS011;60146;52.498;13.462;2024-03-08T02:10:37;32.43;;;10.30;;
72235;SDS011;60146;52.498;13.462;2024-03-08T02:13:03;27.83;;;9.57;;
72235;SDS011;60146;52.498;13.462;2024-03-08T02:18:17;26.70;;;10.00;;
72235;SDS011;60146;52.498;13.462;2024-03-08T02:20:43;34.33;;;11.20;;
72235;SDS011;60146;52.498;13.462;2024-03-08T02:23:09;28.17;;;9.43;;
72235;SDS011;60146;52.498;13.462;2024-03-08T02:25:35;26.73;;;9.93;;
72235;SDS011;60146;52.498;13.462;2024-03-08T02:28:01;27.53;;;9.20;;
72235;SDS011;60146;52.498;13.462;2024-03-08T02:30:26;24.90;;;9.10;;
72235;SDS011;60146;52.498;13.462;2024-03-08T02:32:54;29.33;;;9.80;;
72235;SDS011;60146;52.498;13.462;2024-03-08T02:35:20;25.63;;;9.67;;
72235;SDS011;60146;52.498;13.462;2024-03-08T02:37:45;26.37;;;9.77;;
72235;SDS011;60146;52.498;13.462;2024-03-08T02:40:12;27.93;;;10.83;;
72235;SDS011;60146;52.498;13.462;2024-03-08T02:42:38;31.57;;;10.73;;
72235;SDS011;60146;52.498;13.462;2024-03-08T02:45:04;31.37;;;10.33;;
72235;SDS011;60146;52.498;13.462;2024-03-08T02:47:30;27.90;;;10.07;;
72235;SDS011;60146;52.498;13.462;2024-03-08T02:49:56;31.73;;;10.63;;
72235;SDS011;60146;52.498;13.462;2024-03-08T02:52:21;30.67;;;10.10;;
72235;SDS011;60146;52.498;13.462;2024-03-08T02:54:47;31.30;;;10.47;;
72235;SDS011;60146;52.498;13.462;2024-03-08T02:57:13;29.33;;;10.60;;
72235;SDS011;60146;52.498;13.462;2024-03-08T02:59:39;32.20;;;10.60;;
72235;SDS011;60146;52.498;13.462;2024-03-08T03:02:05;28.73;;;10.37;;
72235;SDS011;60146;52.498;13.462;2024-03-08T03:04:31;30.43;;;11.23;;
72235;SDS011;60146;52.498;13.462;2024-03-08T03:06:59;30.00;;;11.07;;
72235;SDS011;60146;52.498;13.462;2024-03-08T03:09:25;29.37;;;10.87;;
72235;SDS011;60146;52.498;13.462;2024-03-08T03:11:53;28.43;;;9.80;;
72235;SDS011;60146;52.498;13.462;2024-03-08T03:14:20;32.03;;;10.20;;
72235;SDS011;60146;52.498;13.462;2024-03-08T03:16:46;29.30;;;9.83;;
72235;SDS011;60146;52.498;13.462;2024-03-08T03:19:11;30.97;;;10.57;;
72235;SDS011;60146;52.498;13.462;2024-03-08T03:21:37;28.13;;;10.13;;
72235;SDS011;60146;52.498;13.462;2024-03-08T03:24:03;28.33;;;10.10;;
72235;SDS011;60146;52.498;13.462;2024-03-08T03:26:30;31.90;;;10.40;;
72235;SDS011;60146;52.498;13.462;2024-03-08T03:28:56;33.63;;;11.00;;
72235;SDS011;60146;52.498;13.462;2024-03-08T03:31:22;30.67;;;10.63;;
72235;SDS011;60146;52.498;13.462;2024-03-08T03:33:49;32.77;;;10.77;;
72235;SDS011;60146;52.498;13.462;2024-03-08T03:36:16;33.30;;;10.70;;
72235;SDS011;60146;52.498;13.462;2024-03-08T03:38:43;26.23;;;9.53;;
72235;SDS011;60146;52.498;13.462;2024-03-08T03:41:08;32.57;;;11.43;;
72235;SDS011;60146;52.498;13.462;2024-03-08T03:43:37;34.70;;;11.03;;
72235;SDS011;60146;52.498;13.462;2024-03-08T03:46:05;30.90;;;10.80;;
72235;SDS011;60146;52.498;13.462;2024-03-08T03:48:32;33.87;;;11.77;;
72235;SDS011;60146;52.498;13.462;2024-03-08T03:50:57;31.70;;;10.40;;
72235;SDS011;60146;52.498;13.462;2024-03-08T03:53:23;36.60;;;12.13;;
72235;SDS011;60146;52.498;13.462;2024-03-08T03:55:50;36.83;;;11.40;;
72235;SDS011;60146;52.498;13.462;2024-03-08T03:58:16;35.77;;;11.93;;
72235;SDS011;60146;52.498;13.462;2024-03-08T04:00:47;31.43;;;10.90;;
72235;SDS011;60146;52.498;13.462;2024-03-08T04:03:13;36.70;;;12.30;;
72235;SDS011;60146;52.498;13.462;2024-03-08T04:05:38;34.23;;;11.53;;
72235;SDS011;60146;52.498;13.462;2024-03-08T04:08:04;39.63;;;12.53;;
72235;SDS011;60146;52.498;13.462;2024-03-08T04:10:29;36.93;;;12.03;;
72235;SDS011;60146;52.498;13.462;2024-03-08T04:12:55;34.47;;;11.60;;
72235;SDS011;60146;52.498;13.462;2024-03-08T04:15:21;36.20;;;11.83;;
72235;SDS011;60146;52.498;13.462;2024-03-08T04:17:48;28.47;;;10.53;;
72235;SDS011;60146;52.498;13.462;2024-03-08T04:20:13;34.33;;;11.83;;
72235;SDS011;60146;52.498;13.462;2024-03-08T04:22:39;35.97;;;11.27;;
72235;SDS011;60146;52.498;13.462;2024-03-08T04:25:05;35.03;;;12.23;;
72235;SDS011;60146;52.498;13.462;2024-03-08T04:27:32;34.70;;;12.77;;
72235;SDS011;60146;52.498;13.462;2024-03-08T04:29:58;38.93;;;11.97;;
72235;SDS011;60146;52.498;13.462;2024-03-08T04:32:24;35.33;;;11.97;;
72235;SDS011;60146;52.498;13.462;2024-03-08T04:34:50;38.10;;;12.17;;
72235;SDS011;60146;52.498;13.462;2024-03-08T04:37:15;38.33;;;12.00;;
72235;SDS011;60146;52.498;13.462;2024-03-08T04:39:43;35.93;;;12.13;;
72235;SDS011;60146;52.498;13.462;2024-03-08T04:42:08;37.70;;;13.43;;
72235;SDS011;60146;52.498;13.462;2024-03-08T04:44:35;34.90;;;12.27;;
72235;SDS011;60146;52.498;13.462;2024-03-08T04:47:01;35.50;;;12.33;;
72235;SDS011;60146;52.498;13.462;2024-03-08T04:49:27;38.27;;;12.87;;
72235;SDS011;60146;52.498;13.462;2024-03-08T04:51:53;39.40;;;12.63;;
72235;SDS011;60146;52.498;13.462;2024-03-08T04:54:18;40.37;;;12.27;;
72235;SDS011;60146;52.498;13.462;2024-03-08T04:56:43;36.83;;;12.10;;
72235;SDS011;60146;52.498;13.462;2024-03-08T04:59:09;32.37;;;11.23;;
72235;SDS011;60146;52.498;13.462;2024-03-08T05:01:34;35.70;;;11.83;;
72235;SDS011;60146;52.498;13.462;2024-03-08T05:04:02;36.77;;;12.17;;
72235;SDS011;60146;52.498;13.462;2024-03-08T05:06:28;41.03;;;12.67;;
72235;SDS011;60146;52.498;13.462;2024-03-08T05:08:55;31.97;;;12.77;;
72235;SDS011;60146;52.498;13.462;2024-03-08T05:11:20;36.53;;;13.17;;
72235;SDS011;60146;52.498;13.462;2024-03-08T05:13:46;37.07;;;12.70;;
72235;SDS011;60146;52.498;13.462;2024-03-08T05:16:11;37.97;;;12.27;;
72235;SDS011;60146;52.498;13.462;2024-03-08T05:18:36;33.97;;;11.87;;
72235;SDS011;60146;52.498;13.462;2024-03-08T05:21:02;36.93;;;12.30;;
72235;SDS011;60146;52.498;13.462;2024-03-08T05:23:30;37.73;;;12.57;;
72235;SDS011;60146;52.498;13.462;2024-03-08T05:25:56;36.57;;;11.80;;
72235;SDS011;60146;52.498;13.462;2024-03-08T05:28:22;39.33;;;12.63;;
72235;SDS011;60146;52.498;13.462;2024-03-08T05:30:47;36.73;;;12.37;;
72235;SDS011;60146;52.498;13.462;2024-03-08T05:33:12;38.20;;;13.13;;
72235;SDS011;60146;52.498;13.462;2024-03-08T05:35:39;34.20;;;12.90;;
72235;SDS011;60146;52.498;13.462;2024-03-08T05:38:05;39.67;;;13.40;;
72235;SDS011;60146;52.498;13.462;2024-03-08T05:40:31;39.23;;;13.80;;
72235;SDS011;60146;52.498;13.462;2024-03-08T05:42:58;37.73;;;13.00;;
72235;SDS011;60146;52.498;13.462;2024-03-08T05:45:24;40.23;;;12.63;;
72235;SDS011;60146;52.498;13.462;2024-03-08T05:47:50;39.37;;;13.07;;
72235;SDS011;60146;52.498;13.462;2024-03-08T05:50:16;43.03;;;13.47;;
72235;SDS011;60146;52.498;13.462;2024-03-08T05:52:42;36.37;;;13.03;;
72235;SDS011;60146;52.498;13.462;2024-03-08T05:55:08;36.47;;;12.43;;
72235;SDS011;60146;52.498;13.462;2024-03-08T05:57:35;36.00;;;13.00;;
72235;SDS011;60146;52.498;13.462;2024-03-08T06:00:03;42.57;;;14.33;;
72235;SDS011;60146;52.498;13.462;2024-03-08T06:02:29;34.27;;;12.67;;
72235;SDS011;60146;52.498;13.462;2024-03-08T06:04:54;41.60;;;13.53;;
72235;SDS011;60146;52.498;13.462;2024-03-08T06:07:19;39.57;;;12.97;;
72235;SDS011;60146;52.498;13.462;2024-03-08T06:09:45;38.00;;;13.17;;
72235;SDS011;60146;52.498;13.462;2024-03-08T06:12:11;41.47;;;14.07;;
72235;SDS011;60146;52.498;13.462;2024-03-08T06:14:37;39.97;;;13.83;;
72235;SDS011;60146;52.498;13.462;2024-03-08T06:17:02;39.30;;;13.50;;
72235;SDS011;60146;52.498;13.462;2024-03-08T06:19:30;36.47;;;13.13;;
72235;SDS011;60146;52.498;13.462;2024-03-08T06:21:55;41.47;;;14.57;;
72235;SDS011;60146;52.498;13.462;2024-03-08T06:24:21;46.03;;;13.33;;
72235;SDS011;60146;52.498;13.462;2024-03-08T06:26:46;40.43;;;12.67;;
72235;SDS011;60146;52.498;13.462;2024-03-08T06:29:11;37.80;;;12.77;;
72235;SDS011;60146;52.498;13.462;2024-03-08T06:31:37;40.27;;;13.70;;
72235;SDS011;60146;52.498;13.462;2024-03-08T06:34:04;38.17;;;13.73;;
72235;SDS011;60146;52.498;13.462;2024-03-08T06:36:32;39.33;;;12.97;;
72235;SDS011;60146;52.498;13.462;2024-03-08T06:38:58;41.40;;;13.77;;
72235;SDS011;60146;52.498;13.462;2024-03-08T06:41:24;39.20;;;12.97;;
72235;SDS011;60146;52.498;13.462;2024-03-08T06:43:49;36.10;;;12.70;;
72235;SDS011;60146;52.498;13.462;2024-03-08T06:46:16;39.00;;;13.73;;
72235;SDS011;60146;52.498;13.462;2024-03-08T06:48:42;40.47;;;13.53;;
72235;SDS011;60146;52.498;13.462;2024-03-08T06:51:07;41.17;;;13.80;;
72235;SDS011;60146;52.498;13.462;2024-03-08T06:53:33;42.30;;;14.43;;
72235;SDS011;60146;52.498;13.462;2024-03-08T06:56:00;43.37;;;13.87;;
72235;SDS011;60146;52.498;13.462;2024-03-08T06:58:26;39.10;;;13.53;;
72235;SDS011;60146;52.498;13.462;2024-03-08T07:00:52;41.47;;;13.57;;
72235;SDS011;60146;52.498;13.462;2024-03-08T07:03:18;36.80;;;11.97;;
72235;SDS011;60146;52.498;13.462;2024-03-08T07:05:44;37.97;;;13.33;;
72235;SDS011;60146;52.498;13.462;2024-03-08T07:08:09;38.03;;;12.77;;
72235;SDS011;60146;52.498;13.462;2024-03-08T07:10:34;37.53;;;12.67;;
72235;SDS011;60146;52.498;13.462;2024-03-08T07:13:02;35.60;;;11.23;;
72235;SDS011;60146;52.498;13.462;2024-03-08T07:15:27;36.33;;;12.20;;
72235;SDS011;60146;52.498;13.462;2024-03-08T07:17:53;40.00;;;12.87;;
72235;SDS011;60146;52.498;13.462;2024-03-08T07:20:19;33.97;;;12.40;;
72235;SDS011;60146;52.498;13.462;2024-03-08T07:22:45;36.43;;;12.27;;
72235;SDS011;60146;52.498;13.462;2024-03-08T07:25:17;37.83;;;13.03;;
72235;SDS011;60146;52.498;13.462;2024-03-08T07:27:49;37.43;;;12.20;;
72235;SDS011;60146;52.498;13.462;2024-03-08T07:30:16;39.35;;;13.00;;
72235;SDS011;60146;52.498;13.462;2024-03-08T07:33:00;36.03;;;13.00;;
72235;SDS011;60146;52.498;13.462;2024-03-08T07:35:27;33.73;;;11.80;;
72235;SDS011;60146;52.498;13.462;2024-03-08T07:37:53;32.53;;;11.87;;
72235;SDS011;60146;52.498;13.462;2024-03-08T07:40:20;33.57;;;12.03;;
72235;SDS011;60146;52.498;13.462;2024-03-08T07:42:46;35.87;;;12.60;;
72235;SDS011;60146;52.498;13.462;2024-03-08T07:45:11;37.33;;;12.40;;
72235;SDS011;60146;52.498;13.462;2024-03-08T07:47:37;33.27;;;11.27;;
72235;SDS011;60146;52.498;13.462;2024-03-08T07:50:03;31.97;;;11.67;;
72235;SDS011;60146;52.498;13.462;2024-03-08T07:52:29;36.50;;;13.30;;
72235;SDS011;60146;52.498;13.462;2024-03-08T07:54:54;31.23;;;12.30;;
72235;SDS011;60146;52.498;13.462;2024-03-08T07:57:19;33.53;;;12.47;;
72235;SDS011;60146;52.498;13.462;2024-03-08T07:59:45;37.63;;;12.07;;
72235;SDS011;60146;52.498;13.462;2024-03-08T08:02:10;36.00;;;12.57;;
72235;SDS011;60146;52.498;13.462;2024-03-08T08:04:36;35.90;;;11.67;;
72235;SDS011;60146;52.498;13.462;2024-03-08T08:07:01;33.97;;;11.23;;
72235;SDS011;60146;52.498;13.462;2024-03-08T08:09:26;37.17;;;12.43;;
72235;SDS011;60146;52.498;13.462;2024-03-08T08:11:59;28.07;;;10.83;;
72235;SDS011;60146;52.498;13.462;2024-03-08T08:14:26;29.77;;;11.03;;
72235;SDS011;60146;52.498;13.462;2024-03-08T08:16:52;34.33;;;11.53;;
72235;SDS011;60146;52.498;13.462;2024-03-08T08:19:18;30.67;;;11.57;;
72235;SDS011;60146;52.498;13.462;2024-03-08T08:21:46;29.23;;;11.73;;
72235;SDS011;60146;52.498;13.462;2024-03-08T08:24:12;28.70;;;11.13;;
72235;SDS011;60146;52.498;13.462;2024-03-08T08:26:37;35.13;;;12.00;;
72235;SDS011;60146;52.498;13.462;2024-03-08T08:29:03;28.83;;;11.83;;
72235;SDS011;60146;52.498;13.462;2024-03-08T08:31:28;30.03;;;11.90;;
72235;SDS011;60146;52.498;13.462;2024-03-08T08:33:54;27.43;;;11.47;;
72235;SDS011;60146;52.498;13.462;2024-03-08T08:36:23;29.87;;;11.77;;
72235;SDS011;60146;52.498;13.462;2024-03-08T08:38:49;27.67;;;10.80;;
72235;SDS011;60146;52.498;13.462;2024-03-08T08:41:15;29.70;;;10.93;;
72235;SDS011;60146;52.498;13.462;2024-03-08T08:43:42;24.37;;;10.10;;
72235;SDS011;60146;52.498;13.462;2024-03-08T08:46:09;28.20;;;12.03;;
72235;SDS011;60146;52.498;13.462;2024-03-08T08:48:38;32.70;;;11.77;;
72235;SDS011;60146;52.498;13.462;2024-03-08T08:51:03;26.83;;;11.03;;
72235;SDS011;60146;52.498;13.462;2024-03-08T08:53:31;28.80;;;11.73;;
72235;SDS011;60146;52.498;13.462;2024-03-08T08:55:56;29.53;;;12.47;;
72235;SDS011;60146;52.498;13.462;2024-03-08T08:58:22;27.73;;;11.93;;
72235;SDS011;60146;52.498;13.462;2024-03-08T09:00:47;27.37;;;11.43;;
72235;SDS011;60146;52.498;13.462;2024-03-08T09:03:12;25.00;;;10.70;;
72235;SDS011;60146;52.498;13.462;2024-03-08T09:05:38;30.10;;;12.23;;
72235;SDS011;60146;52.498;13.462;2024-03-08T09:08:03;33.43;;;12.70;;
72235;SDS011;60146;52.498;13.462;2024-03-08T09:10:29;29.03;;;11.83;;
72235;SDS011;60146;52.498;13.462;2024-03-08T09:12:54;25.70;;;11.97;;
72235;SDS011;60146;52.498;13.462;2024-03-08T09:15:20;29.77;;;11.20;;
72235;SDS011;60146;52.498;13.462;2024-03-08T09:17:45;25.37;;;11.20;;
72235;SDS011;60146;52.498;13.462;2024-03-08T09:20:11;27.63;;;12.00;;
72235;SDS011;60146;52.498;13.462;2024-03-08T09:22:40;27.20;;;11.40;;
72235;SDS011;60146;52.498;13.462;2024-03-08T09:25:08;25.77;;;11.50;;
72235;SDS011;60146;52.498;13.462;2024-03-08T09:27:34;28.17;;;11.03;;
72235;SDS011;60146;52.498;13.462;2024-03-08T09:30:00;26.90;;;10.77;;
72235;SDS011;60146;52.498;13.462;2024-03-08T09:32:26;28.87;;;11.30;;
72235;SDS011;60146;52.498;13.462;2024-03-08T09:34:51;25.03;;;10.57;;
72235;SDS011;60146;52.498;13.462;2024-03-08T09:37:17;26.10;;;11.00;;
72235;SDS011;60146;52.498;13.462;2024-03-08T09:39:42;25.83;;;11.53;;
72235;SDS011;60146;52.498;13.462;2024-03-08T09:42:08;28.27;;;11.50;;
72235;SDS011;60146;52.498;13.462;2024-03-08T09:44:33;26.13;;;11.50;;
72235;SDS011;60146;52.498;13.462;2024-03-08T09:47:00;24.53;;;10.93;;
72235;SDS011;60146;52.498;13.462;2024-03-08T09:49:27;29.97;;;11.20;;
72235;SDS011;60146;52.498;13.462;2024-03-08T09:51:53;24.40;;;11.30;;
72235;SDS011;60146;52.498;13.462;2024-03-08T09:54:20;24.77;;;10.17;;
72235;SDS011;60146;52.498;13.462;2024-03-08T09:56:47;25.80;;;11.30;;
72235;SDS011;60146;52.498;13.462;2024-03-08T09:59:14;21.85;;;11.45;;
72235;SDS011;60146;52.498;13.462;2024-03-08T10:01:59;23.88;;;10.20;;
72235;SDS011;60146;52.498;13.462;2024-03-08T10:04:24;23.70;;;10.25;;
72235;SDS011;60146;52.498;13.462;2024-03-08T10:06:51;21.15;;;10.40;;
72235;SDS011;60146;52.498;13.462;2024-03-08T10:09:17;21.77;;;10.60;;
72235;SDS011;60146;52.498;13.462;2024-03-08T10:11:42;21.15;;;10.38;;
72235;SDS011;60146;52.498;13.462;2024-03-08T10:14:11;23.92;;;10.63;;
72235;SDS011;60146;52.498;13.462;2024-03-08T10:16:37;21.80;;;10.67;;
72235;SDS011;60146;52.498;13.462;2024-03-08T10:19:04;21.13;;;10.88;;
72235;SDS011;60146;52.498;13.462;2024-03-08T10:21:30;22.63;;;10.32;;
72235;SDS011;60146;52.498;13.462;2024-03-08T10:23:57;22.58;;;10.95;;
72235;SDS011;60146;52.498;13.462;2024-03-08T10:26:24;20.42;;;10.48;;
72235;SDS011;60146;52.498;13.462;2024-03-08T10:28:50;19.15;;;10.55;;
72235;SDS011;60146;52.498;13.462;2024-03-08T10:31:17;20.92;;;11.13;;
72235;SDS011;60146;52.498;13.462;2024-03-08T10:33:44;22.45;;;10.68;;
72235;SDS011;60146;52.498;13.462;2024-03-08T10:36:11;20.90;;;11.02;;
72235;SDS011;60146;52.498;13.462;2024-03-08T10:38:38;19.98;;;10.57;;
72235;SDS011;60146;52.498;13.462;2024-03-08T10:41:05;18.17;;;9.95;;
72235;SDS011;60146;52.498;13.462;2024-03-08T10:49:03;19.33;;;9.57;;
72235;SDS011;60146;52.498;13.462;2024-03-08T10:51:31;19.02;;;9.82;;
72235;SDS011;60146;52.498;13.462;2024-03-08T10:53:57;17.60;;;10.00;;
72235;SDS011;60146;52.498;13.462;2024-03-08T10:56:24;17.35;;;8.93;;
72235;SDS011;60146;52.498;13.462;2024-03-08T10:58:52;17.42;;;9.38;;
72235;SDS011;60146;52.498;13.462;2024-03-08T11:01:20;20.08;;;9.23;;
72235;SDS011;60146;52.498;13.462;2024-03-08T11:06:19;16.35;;;9.30;;
72235;SDS011;60146;52.498;13.462;2024-03-08T11:08:48;20.02;;;9.95;;
72235;SDS011;60146;52.498;13.462;2024-03-08T11:11:25;19.77;;;10.85;;
72235;SDS011;60146;52.498;13.462;2024-03-08T11:13:59;18.00;;;9.63;;
72235;SDS011;60146;52.498;13.462;2024-03-08T11:19:05;18.33;;;10.02;;
72235;SDS011;60146;52.498;13.462;2024-03-08T11:21:56;18.67;;;9.60;;
72235;SDS011;60146;52.498;13.462;2024-03-08T11:24:23;18.05;;;9.50;;
72235;SDS011;60146;52.498;13.462;2024-03-08T11:26:48;15.73;;;9.23;;
72235;SDS011;60146;52.498;13.462;2024-03-08T11:34:57;19.38;;;9.95;;
72235;SDS011;60146;52.498;13.462;2024-03-08T11:37:24;17.40;;;9.10;;
72235;SDS011;60146;52.498;13.462;2024-03-08T11:39:54;16.73;;;9.48;;
72235;SDS011;60146;52.498;13.462;2024-03-08T11:42:24;16.48;;;9.88;;
72235;SDS011;60146;52.498;13.462;2024-03-08T11:44:51;19.40;;;9.55;;
72235;SDS011;60146;52.498;13.462;2024-03-08T11:47:17;17.85;;;9.80;;
72235;SDS011;60146;52.498;13.462;2024-03-08T11:49:43;21.45;;;10.05;;
72235;SDS011;60146;52.498;13.462;2024-03-08T11:52:13;15.77;;;9.02;;
72235;SDS011;60146;52.498;13.462;2024-03-08T11:54:48;17.35;;;9.55;;
72235;SDS011;60146;52.498;13.462;2024-03-08T11:57:19;15.35;;;9.27;;
72235;SDS011;60146;52.498;13.462;2024-03-08T11:59:51;17.17;;;9.65;;
72235;SDS011;60146;52.498;13.462;2024-03-08T12:02:21;17.75;;;10.50;;
72235;SDS011;60146;52.498;13.462;2024-03-08T12:04:50;18.15;;;10.48;;
72235;SDS011;60146;52.498;13.462;2024-03-08T12:07:21;19.70;;;10.00;;
72235;SDS011;60146;52.498;13.462;2024-03-08T12:10:13;19.65;;;10.55;;
72235;SDS011;60146;52.498;13.462;2024-03-08T12:12:46;20.48;;;10.55;;
72235;SDS011;60146;52.498;13.462;2024-03-08T12:15:13;18.13;;;10.43;;
72235;SDS011;60146;52.498;13.462;2024-03-08T12:17:40;17.42;;;9.70;;
72235;SDS011;60146;52.498;13.462;2024-03-08T12:20:15;17.83;;;10.00;;
72235;SDS011;60146;52.498;13.462;2024-03-08T12:22:49;17.90;;;9.43;;
72235;SDS011;60146;52.498;13.462;2024-03-08T12:25:18;17.70;;;9.85;;
72235;SDS011;60146;52.498;13.462;2024-03-08T12:27:43;18.60;;;9.80;;
72235;SDS011;60146;52.498;13.462;2024-03-08T12:30:27;17.83;;;9.48;;
72235;SDS011;60146;52.498;13.462;2024-03-08T12:32:59;19.80;;;9.50;;
72235;SDS011;60146;52.498;13.462;2024-03-08T12:35:29;18.02;;;9.82;;
72235;SDS011;60146;52.498;13.462;2024-03-08T12:37:56;21.02;;;10.70;;
72235;SDS011;60146;52.498;13.462;2024-03-08T12:40:26;18.38;;;9.95;;
72235;SDS011;60146;52.498;13.462;2024-03-08T12:42:53;19.38;;;10.15;;
72235;SDS011;60146;52.498;13.462;2024-03-08T12:45:20;19.40;;;9.98;;
72235;SDS011;60146;52.498;13.462;2024-03-08T12:47:47;19.63;;;10.05;;
72235;SDS011;60146;52.498;13.462;2024-03-08T12:50:12;16.45;;;9.38;;
72235;SDS011;60146;52.498;13.462;2024-03-08T12:52:38;18.40;;;10.10;;
72235;SDS011;60146;52.498;13.462;2024-03-08T12:55:03;17.00;;;9.50;;
72235;SDS011;60146;52.498;13.462;2024-03-08T12:57:32;16.10;;;9.77;;
72235;SDS011;60146;52.498;13.462;2024-03-08T12:59:59;17.65;;;9.30;;
72235;SDS011;60146;52.498;13.462;2024-03-08T13:02:24;17.70;;;9.77;;
72235;SDS011;60146;52.498;13.462;2024-03-08T13:04:51;18.30;;;9.55;;
72235;SDS011;60146;52.498;13.462;2024-03-08T13:07:25;18.00;;;9.98;;
72235;SDS011;60146;52.498;13.462;2024-03-08T13:09:52;19.38;;;9.82;;
72235;SDS011;60146;52.498;13.462;2024-03-08T13:12:18;21.02;;;10.35;;
72235;SDS011;60146;52.498;13.462;2024-03-08T13:14:45;17.33;;;9.98;;
72235;SDS011;60146;52.498;13.462;2024-03-08T13:17:11;20.55;;;10.00;;
72235;SDS011;60146;52.498;13.462;2024-03-08T13:19:37;17.17;;;9.52;;
72235;SDS011;60146;52.498;13.462;2024-03-08T13:22:03;18.42;;;9.43;;
72235;SDS011;60146;52.498;13.462;2024-03-08T13:24:32;16.13;;;8.65;;
72235;SDS011;60146;52.498;13.462;2024-03-08T13:27:01;19.55;;;9.32;;
72235;SDS011;60146;52.498;13.462;2024-03-08T13:29:27;19.08;;;9.43;;
72235;SDS011;60146;52.498;13.462;2024-03-08T13:31:52;17.58;;;9.13;;
72235;SDS011;60146;52.498;13.462;2024-03-08T13:34:20;18.00;;;9.15;;
72235;SDS011;60146;52.498;13.462;2024-03-08T13:36:53;15.70;;;9.10;;
72235;SDS011;60146;52.498;13.462;2024-03-08T13:39:24;16.73;;;8.98;;
72235;SDS011;60146;52.498;13.462;2024-03-08T13:41:50;18.58;;;8.98;;
72235;SDS011;60146;52.498;13.462;2024-03-08T13:44:16;16.90;;;9.40;;
72235;SDS011;60146;52.498;13.462;2024-03-08T13:46:42;17.48;;;9.05;;
72235;SDS011;60146;52.498;13.462;2024-03-08T13:49:07;15.57;;;8.32;;
72235;SDS011;60146;52.498;13.462;2024-03-08T13:51:34;17.38;;;8.40;;
72235;SDS011;60146;52.498;13.462;2024-03-08T13:54:00;16.23;;;8.35;;
72235;SDS011;60146;52.498;13.462;2024-03-08T13:56:26;16.42;;;8.20;;
72235;SDS011;60146;52.498;13.462;2024-03-08T13:58:52;16.85;;;8.40;;
72235;SDS011;60146;52.498;13.462;2024-03-08T14:01:21;16.98;;;8.60;;
72235;SDS011;60146;52.498;13.462;2024-03-08T14:03:46;18.27;;;9.68;;
72235;SDS011;60146;52.498;13.462;2024-03-08T14:06:12;15.48;;;8.15;;
72235;SDS011;60146;52.498;13.462;2024-03-08T14:08:37;14.90;;;7.88;;
72235;SDS011;60146;52.498;13.462;2024-03-08T14:11:03;15.88;;;7.97;;
72235;SDS011;60146;52.498;13.462;2024-03-08T14:13:42;16.13;;;8.13;;
72235;SDS011;60146;52.498;13.462;2024-03-08T14:16:11;16.67;;;8.55;;
72235;SDS011;60146;52.498;13.462;2024-03-08T14:18:37;15.25;;;7.80;;
72235;SDS011;60146;52.498;13.462;2024-03-08T14:21:03;19.88;;;8.13;;
72235;SDS011;60146;52.498;13.462;2024-03-08T14:23:29;14.43;;;7.95;;
72235;SDS011;60146;52.498;13.462;2024-03-08T14:25:55;17.45;;;8.00;;
72235;SDS011;60146;52.498;13.462;2024-03-08T14:28:20;17.58;;;8.23;;
72235;SDS011;60146;52.498;13.462;2024-03-08T14:30:47;15.25;;;7.38;;